Time;durP1;ratioP1;P1;durP2;ratioP2;P2;SDS_P1;SDS_P2;PMS_P1;PMS_P2;Temp;Humidity;BMP_temperature;BMP_pressure;BME280_temperature;BME280_humidity;BME280_pressure;Samples;Min_cycle;Max_cycle;Signal;HPM_P1;HPM_P2
2024/04/17 00:01:00;;;;;;;3.28;1.00;;;;;;;10.05;65.26;100190.16;5471222;25;95436;-71
2024/04/17 00:03:28;;;;;;;6.15;1.77;;;;;;;9.87;65.96;100196.19;5463149;25;95171;-72
2024/04/17 00:05:53;;;;;;;6.32;1.33;;;;;;;10.00;65.94;100189.50;5473402;25;94847;-71
2024/04/17 00:08:21;;;;;;;;;;;;;;;10.04;65.69;100190.25;5472306;25;97009;-71
2024/04/17 00:10:47;;;;;;;1.27;0.93;;;;;;;10.11;65.44;100183.78;5475572;25;97150;-74
2024/04/17 00:13:15;;;;;;;;;;;;;;;10.21;64.76;100191.25;5469206;25;94955;-73
2024/04/17 00:15:40;;;;;;;2.80;1.20;;;;;;;10.24;64.11;100187.66;5482355;25;95489;-73
2024/04/17 00:18:11;;;;;;;;;;;;;;;9.97;65.23;100189.63;5490230;25;97021;-72
2024/04/17 00:20:36;;;;;;;4.18;1.20;;;;;;;9.86;65.26;100195.34;5468881;25;99503;-74
2024/04/17 00:23:04;;;;;;;;;;;;;;;9.96;65.66;100187.91;5470072;25;95218;-73
2024/04/17 00:25:30;;;;;;;2.55;1.20;;;;;;;9.65;66.35;100185.66;5473943;25;95192;-75
2024/04/17 00:27:58;;;;;;;;;;;;;;;9.60;67.42;100198.19;5473082;25;96291;-74
2024/04/17 00:30:23;;;;;;;2.20;1.60;;;;;;;9.62;67.47;100198.97;5478419;25;97249;-74
2024/04/17 00:32:52;;;;;;;;;;;;;;;9.77;67.18;100206.28;5474980;25;94988;-74
2024/04/17 00:35:20;;;;;;;5.22;1.40;;;;;;;9.55;68.07;100211.56;5474970;25;95372;-73
2024/04/17 00:37:48;;;;;;;8.10;1.30;;;;;;;9.58;67.81;100205.31;5476668;25;99490;-74
2024/04/17 00:40:16;;;;;;;6.95;1.67;;;;;;;9.47;67.48;100211.00;5481348;25;95841;-74
2024/04/17 00:42:41;;;;;;;2.97;1.50;;;;;;;9.72;67.16;100213.50;5473541;25;95175;-73
2024/04/17 00:45:09;;;;;;;;;;;;;;;9.59;67.95;100214.91;5481290;25;94763;-72
2024/04/17 00:47:34;;;;;;;5.25;1.45;;;;;;;9.48;67.61;100215.34;5490217;25;96661;-73
2024/04/17 00:50:03;;;;;;;;;;;;;;;9.75;66.78;100218.69;5476953;25;97372;-72
2024/04/17 00:52:31;;;;;;;4.57;1.58;;;;;;;9.50;67.69;100213.53;5474501;25;95350;-73
2024/04/17 00:55:00;;;;;;;6.65;1.83;;;;;;;9.66;66.99;100216.41;5477746;25;94980;-73
2024/04/17 00:57:27;;;;;;;7.85;1.58;;;;;;;9.14;68.38;100209.66;5472543;25;97225;-73
2024/04/17 00:59:56;;;;;;;6.93;1.98;;;;;;;9.10;68.84;100215.97;5472212;25;97225;-73
2024/04/17 01:02:21;;;;;;;3.55;1.30;;;;;;;9.46;68.15;100224.22;5473166;25;95232;-73
2024/04/17 01:04:49;;;;;;;;;;;;;;;9.74;66.87;100216.09;5483094;25;94925;-71
2024/04/17 01:07:15;;;;;;;6.82;1.30;;;;;;;9.74;65.86;100219.59;5475703;25;99934;-73
2024/04/17 01:09:45;;;;;;;;;;;;;;;9.75;65.92;100221.31;5476846;25;97476;-71
2024/04/17 01:12:11;;;;;;;7.43;1.63;;;;;;;9.91;65.78;100219.75;5470820;25;95823;-72
2024/04/17 01:14:39;;;;;;;;;;;;;;;9.99;65.65;100216.81;5476717;25;94972;-74
2024/04/17 01:17:04;;;;;;;5.95;1.88;;;;;;;10.10;65.14;100219.88;5471771;25;96989;-73
2024/04/17 01:19:32;;;;;;;;;;;;;;;10.24;63.49;100221.97;5481494;25;96205;-73
2024/04/17 01:21:58;;;;;;;6.75;1.83;;;;;;;10.16;63.21;100218.75;5473110;25;96053;-73
2024/04/17 01:24:28;;;;;;;;;;;;;;;10.23;62.94;100214.97;5472091;25;96197;-72
2024/04/17 01:26:54;;;;;;;8.00;2.28;;;;;;;10.25;63.16;100218.38;5469912;25;96963;-73
2024/04/17 01:29:22;;;;;;;;;;;;;;;10.30;63.10;100213.78;5474403;25;98685;-80
2024/04/17 01:31:47;;;;;;;4.50;1.67;;;;;;;10.31;62.57;100226.03;5472574;25;94824;-81
2024/04/17 01:34:15;;;;;;;;;;;;;;;10.13;62.94;100225.00;5470754;25;94842;-79
2024/04/17 01:36:41;;;;;;;7.00;2.00;;;;;;;10.16;62.83;100224.91;5469671;25;95690;-80
2024/04/17 01:39:09;;;;;;;;;;;;;;;10.11;62.68;100221.56;5475369;25;96194;-80
2024/04/17 01:41:37;;;;;;;6.47;1.98;;;;;;;9.98;62.99;100221.22;5473460;25;95850;-82
2024/04/17 01:44:05;;;;;;;5.22;1.55;;;;;;;10.05;62.79;100223.59;5475248;25;96890;-80
2024/04/17 01:46:30;;;;;;;5.03;1.80;;;;;;;9.81;62.70;100228.13;5475314;25;99449;-79
2024/04/17 01:48:58;;;;;;;;;;;;;;;9.93;62.64;100230.25;5468887;25;100019;-75
2024/04/17 01:51:24;;;;;;;8.15;2.10;;;;;;;9.97;62.84;100227.44;5465469;25;94920;-75
2024/04/17 01:53:52;;;;;;;;;;;;;;;9.92;62.66;100232.03;5474878;25;94865;-75
2024/04/17 01:56:17;;;;;;;5.43;1.58;;;;;;;9.73;63.34;100230.19;5480387;25;96813;-75
2024/04/17 01:58:49;;;;;;;;;;;;;;;9.82;63.48;100235.97;5473864;25;97471;-75
2024/04/17 02:01:14;;;;;;;4.30;1.38;;;;;;;9.90;62.98;100233.91;5468012;25;95542;-74
2024/04/17 02:03:42;;;;;;;;;;;;;;;9.91;63.15;100240.88;5474972;25;95885;-75
2024/04/17 02:06:07;;;;;;;4.50;1.80;;;;;;;9.90;62.57;100240.94;5473114;25;95570;-75
2024/04/17 02:08:35;;;;;;;;;;;;;;;9.83;63.21;100236.84;5472580;25;96911;-75
2024/04/17 02:11:03;;;;;;;6.57;1.80;;;;;;;9.82;63.33;100238.63;5462044;25;95592;-75
2024/04/17 02:13:31;;;;;;;2.95;1.40;;;;;;;9.95;62.68;100242.47;5471987;25;97206;-75
2024/04/17 02:16:02;;;;;;;4.63;1.50;;;;;;;9.84;62.95;100244.72;5476140;25;96682;-74
2024/04/17 02:18:30;;;;;;;7.32;1.35;;;;;;;9.76;62.97;100238.00;5477613;25;97046;-74
2024/04/17 02:20:56;;;;;;;4.63;1.30;;;;;;;9.42;64.47;100246.38;5479769;25;95554;-75
2024/04/17 02:23:28;;;;;;;;;;;;;;;9.74;63.90;100240.69;5472838;25;94896;-75
2024/04/17 02:25:53;;;;;;;2.70;1.30;;;;;;;9.91;62.88;100240.88;5477927;25;97398;-75
2024/04/17 02:28:21;;;;;;;;;;;;;;;9.90;62.60;100239.19;5471244;25;98705;-76
2024/04/17 02:30:47;;;;;;;5.65;1.50;;;;;;;9.78;63.13;100239.66;5463050;25;94855;-75
2024/04/17 02:33:17;;;;;;;;;;;;;;;9.92;62.69;100237.31;5474634;25;94935;-76
2024/04/17 02:35:44;;;;;;;4.53;1.23;;;;;;;9.86;62.96;100248.13;5478159;25;95454;-74
2024/04/17 02:38:12;;;;;;;2.88;1.20;;;;;;;9.71;63.29;100239.97;5478641;25;97280;-76
2024/04/17 02:40:37;;;;;;;2.53;0.93;;;;;;;9.63;63.46;100255.25;5467629;25;96110;-75
2024/04/17 02:43:06;;;;;;;;;;;;;;;9.67;63.83;100256.81;5477753;25;94965;-75
2024/04/17 02:45:31;;;;;;;7.90;1.25;;;;;;;9.71;63.70;100258.44;5478438;25;94779;-76
2024/04/17 02:48:00;;;;;;;;;;;;;;;9.46;64.56;100258.53;5480735;25;96067;-76
2024/04/17 02:50:28;;;;;;;3.25;1.00;;;;;;;9.43;64.89;100253.38;5483778;25;94725;-77
2024/04/17 02:52:56;;;;;;;4.03;1.33;;;;;;;9.27;65.63;100258.38;5482215;25;95295;-78
2024/04/17 02:55:22;;;;;;;3.53;1.10;;;;;;;9.47;65.02;100260.25;5482401;25;96979;-81
2024/04/17 02:57:50;;;;;;;;;;;;;;;9.62;64.78;100259.66;5480075;25;99415;-79
2024/04/17 03:00:17;;;;;;;4.10;1.13;;;;;;;9.50;64.14;100268.91;5485747;25;95265;-79
2024/04/17 03:02:45;;;;;;;4.28;1.48;;;;;;;9.80;64.03;100263.34;5474710;25;94975;-80
2024/04/17 03:05:11;;;;;;;2.30;1.10;;;;;;;9.81;63.54;100265.06;5482594;25;96059;-78
2024/04/17 03:07:44;;;;;;;;;;;;;;;9.59;64.37;100278.22;5484044;25;96809;-80
2024/04/17 03:10:09;;;;;;;4.22;1.40;;;;;;;9.69;64.33;100270.81;5484751;25;94781;-80
2024/04/17 03:12:37;;;;;;;;;;;;;;;10.04;63.31;100272.94;5491940;25;94720;-79
2024/04/17 03:15:04;;;;;;;5.57;1.52;;;;;;;9.61;64.25;100268.47;5476740;25;98440;-80
2024/04/17 03:17:32;;;;;;;5.30;1.27;;;;;;;9.56;64.80;100278.38;5485813;25;97323;-78
2024/04/17 03:19:57;;;;;;;4.65;1.40;;;;;;;9.47;64.67;100281.34;5484149;25;94823;-78
2024/04/17 03:22:25;;;;;;;;;;;;;;;9.42;66.25;100288.56;5478906;25;95001;-78
2024/04/17 03:24:53;;;;;;;2.17;1.40;;;;;;;9.46;66.07;100280.47;5484883;25;97003;-79
2024/04/17 03:27:21;;;;;;;4.07;1.35;;;;;;;9.23;66.89;100290.19;5474350;25;96016;-79
2024/04/17 03:29:47;;;;;;;5.38;1.90;;;;;;;9.07;67.65;100284.59;5473158;25;94720;-78
2024/04/17 03:32:14;;;;;;;;;;;;;;;8.85;69.53;100288.94;5475719;25;95794;-78
2024/04/17 03:34:40;;;;;;;5.28;1.50;;;;;;;9.03;68.60;100283.88;5470712;25;97938;-79
2024/04/17 03:37:08;;;;;;;;;;;;;;;8.98;68.85;100298.13;5476639;25;95051;-79
2024/04/17 03:39:36;;;;;;;4.18;1.60;;;;;;;9.16;68.09;100289.56;5475376;25;95669;-80
2024/04/17 03:42:07;;;;;;;5.70;1.55;;;;;;;9.11;67.88;100289.72;5478419;25;95617;-80
2024/04/17 03:44:35;;;;;;;5.90;1.20;;;;;;;9.00;68.97;100297.16;5476393;25;98134;-79
2024/04/17 03:47:03;;;;;;;3.45;1.38;;;;;;;9.12;68.67;100303.78;5477061;25;100241;-78
2024/04/17 03:49:31;;;;;;;1.73;0.98;;;;;;;8.98;68.55;100304.28;5479837;25;94730;-79
2024/04/17 03:51:57;;;;;;;5.70;1.30;;;;;;;8.80;69.32;100305.75;5480295;25;94827;-74
2024/04/17 03:54:25;;;;;;;;;;;;;;;8.97;68.74;100306.94;5474009;25;96795;-73
2024/04/17 03:56:50;;;;;;;4.32;1.40;;;;;;;8.94;68.79;100313.19;5467478;25;97197;-73
2024/04/17 03:59:21;;;;;;;;;;;;;;;9.07;68.80;100318.88;5476417;25;94795;-73
2024/04/17 04:01:46;;;;;;;4.20;1.30;;;;;;;8.98;68.58;100314.81;5474749;25;94917;-73
2024/04/17 04:04:14;;;;;;;;;;;;;;;9.11;68.54;100313.44;5472902;25;98474;-72
2024/04/17 04:06:40;;;;;;;1.98;1.27;;;;;;;9.05;68.26;100320.72;5473809;25;96772;-73
2024/04/17 04:09:07;;;;;;;;;;;;;;;9.47;67.71;100323.53;5475916;25;95154;-72
2024/04/17 04:11:33;;;;;;;3.13;1.50;;;;;;;9.56;66.82;100323.19;5472231;25;95548;-74
2024/04/17 04:14:01;;;;;;;;;;;;;;;9.96;65.31;100323.38;5463400;25;99530;-73
2024/04/17 04:16:29;;;;;;;7.03;1.95;;;;;;;9.98;64.77;100323.28;5469711;25;97339;-74
2024/04/17 04:18:57;;;;;;;4.85;2.22;;;;;;;9.92;64.46;100327.03;5476145;25;94923;-73
2024/04/17 04:21:22;;;;;;;4.57;1.80;;;;;;;9.73;65.31;100331.31;5478388;25;94863;-72
2024/04/17 04:23:50;;;;;;;;;;;;;;;9.75;65.71;100334.78;5477737;25;97243;-73
2024/04/17 04:26:16;;;;;;;10.68;1.83;;;;;;;9.57;66.47;100336.34;5472480;25;100529;-73
2024/04/17 04:28:44;;;;;;;;;;;;;;;9.81;66.00;100334.53;5473850;25;96794;-73
2024/04/17 04:31:09;;;;;;;5.63;1.83;;;;;;;9.89;65.24;100343.00;5465515;25;96115;-73
2024/04/17 04:33:40;;;;;;;;;;;;;;;9.66;65.89;100340.38;5475264;25;97494;-74
2024/04/17 04:36:06;;;;;;;6.75;1.60;;;;;;;9.76;65.71;100331.22;5478649;25;96262;-74
2024/04/17 04:38:34;;;;;;;8.55;1.63;;;;;;;9.70;65.82;100346.41;5475283;25;94773;-72
2024/04/17 04:41:01;;;;;;;6.15;1.88;;;;;;;9.67;65.68;100350.03;5473102;25;96032;-72
2024/04/17 04:43:29;;;;;;;6.50;1.42;;;;;;;9.68;66.29;100356.16;5475825;25;97005;-71
2024/04/17 04:45:55;;;;;;;4.65;1.90;;;;;;;10.11;64.82;100355.38;5494248;25;95030;-72
2024/04/17 04:48:23;;;;;;;;;;;;;;;10.48;63.01;100353.00;5488391;25;94855;-72
2024/04/17 04:50:58;;;;;;;4.72;1.73;;;;;;;10.35;62.95;100357.91;5479110;25;96162;-73
2024/04/17 04:53:29;;;;;;;4.85;1.77;;;;;;;10.48;62.66;100358.28;5461546;25;98275;-73
2024/04/17 04:55:58;;;;;;;4.88;1.92;;;;;;;10.35;62.43;100357.91;5462850;25;95980;-73
2024/04/17 04:58:32;;;;;;;6.78;2.10;;;;;;;10.71;61.50;100355.53;5465055;25;95694;-72
2024/04/17 05:00:57;;;;;;;5.30;2.40;;;;;;;10.64;61.21;100354.06;5471466;25;95711;-73
2024/04/17 05:03:25;;;;;;;;;;;;;;;10.66;60.99;100361.94;5464481;25;96454;-72
2024/04/17 05:05:51;;;;;;;6.13;1.75;;;;;;;10.30;62.48;100356.38;5470943;25;97343;-72
2024/04/17 05:08:24;;;;;;;;;;;;;;;10.78;61.48;100361.41;5471378;25;94837;-72
2024/04/17 05:10:49;;;;;;;11.95;1.95;;;;;;;10.62;61.45;100365.63;5474477;25;94991;-72
2024/04/17 05:13:17;;;;;;;;;;;;;;;10.30;61.93;100366.94;5468413;25;97172;-73
2024/04/17 05:15:43;;;;;;;5.35;1.73;;;;;;;10.19;62.50;100377.94;5470307;25;97129;-71
2024/04/17 05:18:11;;;;;;;;;;;;;;;10.20;62.84;100381.44;5469166;25;95381;-72
2024/04/17 05:20:37;;;;;;;9.57;2.50;;;;;;;10.13;63.31;100374.63;5471520;25;95111;-73
2024/04/17 05:23:05;;;;;;;9.05;2.80;;;;;;;10.03;64.05;100383.84;5471387;25;96966;-74
2024/04/17 05:25:34;;;;;;;6.93;2.85;;;;;;;10.39;62.81;100388.56;5465736;25;96568;-72
2024/04/17 05:28:03;;;;;;;4.82;2.65;;;;;;;10.23;63.53;100383.97;5475671;25;94905;-74
2024/04/17 05:30:28;;;;;;;7.05;2.60;;;;;;;10.32;62.60;100383.56;5477642;25;94838;-74
2024/04/17 05:32:56;;;;;;;;;;;;;;;10.16;62.89;100385.09;5473457;25;98796;-73
2024/04/17 05:35:22;;;;;;;3.78;1.80;;;;;;;10.60;62.19;100397.41;5469844;25;102088;-74
2024/04/17 05:37:50;;;;;;;;;;;;;;;10.59;61.76;100394.81;5479176;25;94827;-74
2024/04/17 05:40:16;;;;;;;5.97;2.08;;;;;;;10.60;61.71;100400.03;5476239;25;95007;-74
2024/04/17 05:42:47;;;;;;;;;;;;;;;10.51;62.10;100394.25;5479435;25;95669;-73
2024/04/17 05:45:12;;;;;;;7.03;2.35;;;;;;;10.27;62.66;100404.91;5482095;25;97667;-74
2024/04/17 05:47:40;;;;;;;;;;;;;;;10.21;62.74;100402.50;5477291;25;94912;-74
2024/04/17 05:50:07;;;;;;;6.45;2.15;;;;;;;10.12;63.66;100402.81;5468993;25;96063;-74
2024/04/17 05:52:35;;;;;;;4.82;1.67;;;;;;;10.46;62.66;100412.94;5465729;25;99730;-72
2024/04/17 05:55:00;;;;;;;6.07;1.90;;;;;;;11.17;60.84;100396.72;5477068;25;97197;-74
2024/04/17 05:57:28;;;;;;;;;;;;;;;11.39;59.88;100401.94;5477466;25;95586;-72
2024/04/17 05:59:56;;;;;;;8.07;1.73;;;;;;;11.22;59.72;100404.47;5476979;25;96064;-73
2024/04/17 06:02:24;;;;;;;2.50;1.10;;;;;;;11.30;59.34;100409.41;5467281;25;99394;-74
2024/04/17 06:04:50;;;;;;;3.50;1.25;;;;;;;11.55;59.15;100407.41;5473777;25;95649;-73
2024/04/17 06:07:18;;;;;;;;;;;;;;;12.01;57.31;100405.34;5477007;25;94831;-73
2024/04/17 06:09:43;;;;;;;3.08;1.35;;;;;;;12.00;56.70;100407.13;5467473;25;94943;-73
2024/04/17 06:12:11;;;;;;;;;;;;;;;12.19;55.45;100415.94;5458066;25;100005;-74
2024/04/17 06:14:37;;;;;;;5.53;1.50;;;;;;;12.27;55.51;100404.97;5462943;25;95631;-72
2024/04/17 06:17:07;;;;;;;;;;;;;;;12.30;55.07;100408.31;5474663;25;95561;-74
2024/04/17 06:19:33;;;;;;;7.85;2.80;;;;;;;12.18;55.30;100406.25;5479346;25;94765;-73
2024/04/17 06:22:01;;;;;;;;;;;;;;;11.86;55.70;100410.41;5468062;25;96913;-73
2024/04/17 06:24:27;;;;;;;5.50;1.65;;;;;;;11.59;56.10;100415.13;5469691;25;97113;-74
2024/04/17 06:26:54;;;;;;;;;;;;;;;11.41;57.42;100418.59;5480583;25;94698;-74
2024/04/17 06:29:20;;;;;;;6.22;2.15;;;;;;;11.49;57.42;100421.75;5481418;25;94868;-75
2024/04/17 06:31:48;;;;;;;;;;;;;;;11.67;57.22;100411.28;5480263;25;96840;-73
2024/04/17 06:34:16;;;;;;;7.68;2.33;;;;;;;12.04;56.02;100416.63;5473156;25;96844;-74
2024/04/17 06:36:45;;;;;;;4.55;1.30;;;;;;;12.37;55.67;100420.34;5475540;25;94760;-75
2024/04/17 06:39:10;;;;;;;10.43;1.70;;;;;;;12.86;54.04;100407.34;5476559;25;95217;-74
2024/04/17 06:41:38;;;;;;;;;;;;;;;12.86;52.83;100417.09;5472100;25;100502;-73
2024/04/17 06:44:04;;;;;;;4.15;1.50;;;;;;;12.76;53.13;100416.69;5465628;25;96809;-75
2024/04/17 06:46:32;;;;;;;;;;;;;;;12.67;52.72;100412.69;5475598;25;98657;-73
2024/04/17 06:48:57;;;;;;;5.75;1.40;;;;;;;12.67;52.99;100412.69;5480477;25;95013;-74
2024/04/17 06:51:28;;;;;;;;;;;;;;;12.70;53.95;100411.69;5475129;25;100223;-74
2024/04/17 06:53:53;;;;;;;3.33;0.88;;;;;;;12.17;53.94;100423.06;5477913;25;97120;-75
2024/04/17 06:56:21;;;;;;;;;;;;;;;12.46;54.11;100428.78;5472263;25;94960;-74
2024/04/17 06:58:47;;;;;;;1.27;0.82;;;;;;;12.48;53.60;100424.25;5477997;25;95006;-74
2024/04/17 07:01:15;;;;;;;;;;;;;;;12.49;53.80;100423.31;5471924;25;96884;-73
2024/04/17 07:03:41;;;;;;;6.90;1.30;;;;;;;12.16;54.13;100423.13;5475089;25;97240;-73
2024/04/17 07:06:09;;;;;;;;;;;;;;;12.46;53.16;100423.50;5465366;25;94705;-73
2024/04/17 07:08:37;;;;;;;1.88;0.77;;;;;;;12.21;54.29;100416.69;5480794;25;95225;-75
2024/04/17 07:11:05;;;;;;;6.68;0.98;;;;;;;12.28;55.02;100419.91;5478642;25;97731;-74
2024/04/17 07:13:40;;;;;;;2.47;0.70;;;;;;;12.25;54.89;100431.53;5480211;25;96265;-73
2024/04/17 07:16:09;;;;;;;4.57;0.90;;;;;;;12.11;54.47;100422.50;5468799;25;94749;-73
2024/04/17 07:18:35;;;;;;;2.60;0.80;;;;;;;11.74;55.31;100421.56;5467044;25;94976;-73
2024/04/17 07:21:03;;;;;;;4.15;0.60;;;;;;;11.79;54.49;100427.50;5467777;25;95682;-74
2024/04/17 07:23:29;;;;;;;3.22;0.70;;;;;;;12.43;53.52;100432.44;5476729;25;96417;-75
2024/04/17 07:25:59;;;;;;;;;;;;;;;12.30;52.83;100426.00;5480313;25;94846;-74
2024/04/17 07:28:25;;;;;;;1.83;0.60;;;;;;;12.88;52.11;100425.81;5475888;25;94835;-73
2024/04/17 07:30:53;;;;;;;;;;;;;;;12.86;51.09;100428.56;5474162;25;97392;-74
2024/04/17 07:33:18;;;;;;;1.20;0.60;;;;;;;13.09;50.81;100428.25;5466111;25;95710;-74
2024/04/17 07:35:46;;;;;;;;;;;;;;;13.23;49.83;100426.72;5474951;25;96899;-74
2024/04/17 07:38:12;;;;;;;1.75;0.85;;;;;;;13.77;49.67;100421.19;5472092;25;94859;-74
2024/04/17 07:40:40;;;;;;;;;;;;;;;14.95;46.42;100423.41;5475340;25;97038;-73
2024/04/17 07:43:10;;;;;;;2.67;1.00;;;;;;;15.56;44.84;100417.13;5467786;25;99774;-74
2024/04/17 07:45:38;;;;;;;3.28;1.00;;;;;;;16.00;42.68;100417.88;5480794;25;94842;-74
2024/04/17 07:48:05;;;;;;;2.58;1.38;;;;;;;15.23;44.42;100427.97;5478941;25;95108;-73
2024/04/17 07:50:33;;;;;;;1.35;0.75;;;;;;;15.66;43.54;100427.13;5474607;25;100298;-73
2024/04/17 07:52:58;;;;;;;4.50;1.63;;;;;;;15.57;43.03;100426.81;5478383;25;97048;-75
2024/04/17 07:55:26;;;;;;;;;;;;;;;15.26;44.70;100430.44;5476456;25;99429;-73
2024/04/17 07:57:52;;;;;;;6.13;1.65;;;;;;;14.47;46.76;100433.25;5476413;25;95019;-75
2024/04/17 08:00:22;;;;;;;;;;;;;;;14.08;48.43;100435.44;5480666;25;96966;-73
2024/04/17 08:02:48;;;;;;;3.97;1.23;;;;;;;13.71;49.38;100431.28;5478413;25;95719;-74
2024/04/17 08:05:16;;;;;;;;;;;;;;;13.30;49.46;100428.97;5477076;25;95576;-74
2024/04/17 08:07:42;;;;;;;3.78;1.13;;;;;;;13.28;49.99;100437.94;5479728;25;95853;-72
2024/04/17 08:10:09;;;;;;;;;;;;;;;12.87;50.36;100427.59;5474117;25;99770;-73
2024/04/17 08:12:36;;;;;;;1.88;0.90;;;;;;;12.92;49.79;100427.41;5470565;25;96139;-74
2024/04/17 08:15:04;;;;;;;4.65;0.85;;;;;;;13.43;48.82;100434.50;5476181;25;94775;-74
2024/04/17 08:17:32;;;;;;;18.55;8.23;;;;;;;13.95;48.16;100433.47;5472341;25;94873;-74
2024/04/17 08:20:01;;;;;;;4.60;1.17;;;;;;;14.13;47.86;100428.94;5480351;25;96982;-74
2024/04/17 08:22:26;;;;;;;4.35;2.33;;;;;;;14.14;47.69;100441.28;5478560;25;99665;-74
2024/04/17 08:24:55;;;;;;;;;;;;;;;14.14;47.34;100433.31;5478828;25;94722;-73
2024/04/17 08:27:23;;;;;;;3.20;1.35;;;;;;;14.32;47.49;100434.94;5471829;25;94923;-74
2024/04/17 08:29:49;;;;;;;1.10;0.88;;;;;;;15.16;45.23;100436.28;5470311;25;96821;-74
2024/04/17 08:32:17;;;;;;;;;;;;;;;15.41;43.11;100435.72;5472469;25;97139;-75
2024/04/17 08:34:45;;;;;;;2.53;1.02;;;;;;;15.20;43.79;100431.66;5466082;25;95021;-73
2024/04/17 08:37:13;;;;;;;2.15;1.00;;;;;;;15.86;42.89;100437.41;5470466;25;95243;-74
2024/04/17 08:39:39;;;;;;;5.47;1.27;;;;;;;15.94;42.36;100429.78;5472002;25;95801;-74
2024/04/17 08:42:07;;;;;;;;;;;;;;;16.27;40.51;100436.59;5478368;25;97001;-73
2024/04/17 08:44:34;;;;;;;2.05;0.80;;;;;;;15.75;41.21;100434.53;5480716;25;94712;-73
2024/04/17 08:47:04;;;;;;;3.13;1.17;;;;;;;15.11;42.82;100442.84;5479584;25;94796;-73
2024/04/17 08:49:34;;;;;;;4.60;1.98;;;;;;;15.07;43.04;100438.66;5475636;25;96915;-74
2024/04/17 08:52:06;;;;;;;1.73;1.13;;;;;;;15.07;43.62;100444.84;5478584;25;98328;-74
2024/04/17 08:54:33;;;;;;;3.03;1.27;;;;;;;15.53;42.13;100437.66;5468284;25;94821;-74
2024/04/17 08:57:01;;;;;;;4.65;1.30;;;;;;;15.88;41.82;100435.47;5479707;25;94715;-73
2024/04/17 08:59:27;;;;;;;4.30;1.35;;;;;;;16.45;40.87;100440.75;5478513;25;97534;-73
2024/04/17 09:01:55;;;;;;;;;;;;;;;15.94;41.11;100442.25;5477312;25;96871;-74
2024/04/17 09:04:24;;;;;;;3.67;1.30;;;;;;;15.09;43.73;100437.63;5479586;25;95106;-76
2024/04/17 09:06:53;;;;;;;3.17;0.90;;;;;;;14.75;44.86;100446.72;5478607;25;94886;-76
2024/04/17 09:09:23;;;;;;;3.13;1.50;;;;;;;14.92;44.94;100439.53;5462665;25;99815;-77
2024/04/17 09:11:53;;;;;;;5.68;1.67;;;;;;;14.75;45.05;100448.50;5472544;25;99229;-78
2024/04/17 09:14:19;;;;;;;3.45;1.13;;;;;;;14.00;47.51;100433.19;5479891;25;94724;-77
2024/04/17 09:16:48;;;;;;;3.55;1.48;;;;;;;13.77;48.66;100439.78;5466859;25;95155;-75
2024/04/17 09:19:13;;;;;;;2.60;1.40;;;;;;;14.16;47.77;100434.09;5461267;25;96889;-77
2024/04/17 09:21:42;;;;;;;;;;;;;;;13.98;48.47;100438.59;5472387;25;97103;-75
2024/04/17 09:24:08;;;;;;;2.83;1.20;;;;;;;14.12;48.16;100437.84;5480514;25;94882;-77
2024/04/17 09:26:38;;;;;;;;;;;;;;;15.27;45.95;100438.34;5480859;25;94689;-75
2024/04/17 09:29:04;;;;;;;5.28;1.23;;;;;;;15.75;43.93;100429.19;5477368;25;94997;-77
2024/04/17 09:31:32;;;;;;;;;;;;;;;16.61;41.56;100427.28;5476096;25;97159;-78
2024/04/17 09:34:01;;;;;;;2.83;1.30;;;;;;;17.14;40.18;100429.06;5478846;25;94716;-77
2024/04/17 09:36:29;;;;;;;4.90;1.17;;;;;;;17.19;39.25;100426.97;5467131;25;94937;-78
2024/04/17 09:38:56;;;;;;;3.30;1.45;;;;;;;16.68;39.64;100426.78;5459037;25;95421;-78
2024/04/17 09:41:24;;;;;;;4.90;1.80;;;;;;;16.26;40.80;100421.56;5469314;25;99717;-77
2024/04/17 09:43:56;;;;;;;2.97;1.35;;;;;;;16.10;41.70;100424.34;5479392;25;95335;-76
2024/04/17 09:46:26;;;;;;;7.10;1.65;;;;;;;16.17;41.48;100430.13;5465467;25;95208;-78
2024/04/17 09:48:55;;;;;;;4.80;1.60;;;;;;;16.23;40.95;100425.25;5472556;25;98125;-76
2024/04/17 09:51:24;;;;;;;10.50;1.88;;;;;;;16.55;40.81;100422.31;5477147;25;96830;-76
2024/04/17 09:53:54;;;;;;;26.00;2.90;;;;;;;16.77;40.54;100414.66;5470351;25;95164;-77
2024/04/17 09:56:24;;;;;;;6.75;1.63;;;;;;;17.42;38.08;100417.38;5471100;25;96084;-77
2024/04/17 09:58:53;;;;;;;3.28;1.40;;;;;;;17.84;36.18;100419.75;5468276;25;99641;-77
2024/04/17 10:01:22;;;;;;;1.55;1.30;;;;;;;17.91;34.52;100417.50;5454153;25;97476;-77
2024/04/17 10:03:48;;;;;;;2.40;1.30;;;;;;;17.28;35.75;100414.78;5455225;25;94891;-77
2024/04/17 10:06:17;;;;;;;4.38;1.10;;;;;;;17.06;36.21;100408.25;5471942;25;95299;-77
2024/04/17 10:08:44;;;;;;;1.73;1.20;;;;;;;17.27;34.77;100405.91;5464443;25;96909;-77
2024/04/17 10:11:13;;;;;;;2.92;0.88;;;;;;;16.74;34.57;100402.38;5468817;25;98114;-77
2024/04/17 10:13:39;;;;;;;4.07;1.13;;;;;;;16.47;35.28;100401.50;5478075;25;94765;-75
2024/04/17 10:16:11;;;;;;;1.38;0.70;;;;;;;16.04;34.21;100397.22;5474752;25;94896;-77
2024/04/17 10:18:37;;;;;;;1.42;0.88;;;;;;;16.23;34.33;100397.75;5480338;25;99909;-77
2024/04/17 10:21:05;;;;;;;;;;;;;;;16.65;35.04;100391.47;5481023;25;97264;-77
2024/04/17 10:23:30;;;;;;;2.33;1.00;;;;;;;15.94;35.18;100400.47;5476636;25;94766;-77
2024/04/17 10:25:59;;;;;;;;;;;;;;;15.75;36.07;100401.72;5482253;25;94934;-77
2024/04/17 10:28:26;;;;;;;4.78;0.82;;;;;;;16.07;35.92;100397.03;5458506;25;95940;-76
2024/04/17 10:30:58;;;;;;;1.90;1.08;;;;;;;15.69;37.91;100397.59;5480263;25;99749;-73
2024/04/17 10:33:30;;;;;;;3.17;1.15;;;;;;;14.61;37.93;100396.13;5470354;25;96115;-74
2024/04/17 10:35:59;;;;;;;1.20;0.57;;;;;;;13.73;38.16;100401.03;5479629;25;95379;-74
2024/04/17 10:38:25;;;;;;;1.75;0.60;;;;;;;13.14;38.48;100399.72;5479319;25;97460;-75
2024/04/17 10:40:55;;;;;;;2.22;0.70;;;;;;;13.57;37.42;100400.16;5480320;25;96840;-74
2024/04/17 10:43:22;;;;;;;2.08;0.70;;;;;;;13.66;38.43;100399.63;5480865;25;96818;-74
2024/04/17 10:45:57;;;;;;;3.38;0.70;;;;;;;13.85;38.44;100395.03;5470600;25;95259;-74
2024/04/17 10:48:24;;;;;;;4.38;0.90;;;;;;;13.54;38.33;100397.63;5475253;25;96975;-74
2024/04/17 10:50:55;;;;;;;1.33;0.65;;;;;;;13.55;39.17;100399.34;5477150;25;97222;-73
2024/04/17 10:53:21;;;;;;;3.70;0.60;;;;;;;14.35;38.38;100394.06;5472452;25;95338;-74
2024/04/17 10:55:51;;;;;;;5.60;0.90;;;;;;;14.41;38.68;100401.72;5480891;25;95229;-75
2024/04/17 10:58:17;;;;;;;5.97;0.80;;;;;;;14.05;36.20;100390.44;5467096;25;97257;-73
2024/04/17 11:00:45;;;;;;;4.25;1.02;;;;;;;14.24;35.32;100391.16;5470279;25;97719;-75
2024/04/17 11:03:11;;;;;;;0.73;0.45;;;;;;;14.92;33.80;100389.00;5471988;25;94882;-74
2024/04/17 11:05:40;;;;;;;3.10;0.50;;;;;;;14.56;32.45;100386.69;5479188;25;94947;-75
2024/04/17 11:08:08;;;;;;;1.20;0.80;;;;;;;13.84;33.47;100382.72;5476752;25;96984;-73
2024/04/17 11:10:38;;;;;;;1.85;0.60;;;;;;;14.61;32.64;100387.28;5476169;25;95857;-74
2024/04/17 11:13:13;;;;;;;3.15;0.60;;;;;;;15.11;31.90;100378.97;5457723;25;94748;-75
2024/04/17 11:15:42;;;;;;;1.92;1.05;;;;;;;15.42;31.45;100378.84;5476609;25;94799;-74
2024/04/17 11:18:08;;;;;;;1.77;0.77;;;;;;;15.07;32.77;100375.66;5479605;25;98176;-74
2024/04/17 11:20:36;;;;;;;;;;;;;;;15.35;31.47;100368.66;5465393;25;97281;-73
2024/04/17 11:23:06;;;;;;;2.97;0.82;;;;;;;15.12;32.15;100370.03;5475462;25;95019;-73
2024/04/17 11:25:36;;;;;;;1.20;0.50;;;;;;;15.26;31.67;100361.22;5479679;25;94822;-74
2024/04/17 11:28:04;;;;;;;2.22;0.70;;;;;;;15.97;30.80;100364.78;5478326;25;99841;-75
2024/04/17 11:30:30;;;;;;;1.70;0.50;;;;;;;16.06;29.91;100374.84;5477216;25;100182;-75
2024/04/17 11:32:58;;;;;;;;;;;;;;;15.39;30.45;100367.53;5475013;25;97502;-74
2024/04/17 11:35:24;;;;;;;1.23;0.70;;;;;;;15.35;30.74;100364.22;5469426;25;94662;-74
2024/04/17 11:37:52;;;;;;;;;;;;;;;14.98;30.94;100372.66;5479451;25;98693;-74
2024/04/17 11:40:18;;;;;;;0.93;0.52;;;;;;;14.82;29.37;100377.19;5480999;25;94909;-75
2024/04/17 11:42:49;;;;;;;3.38;2.15;;;;;;;14.70;29.03;100374.28;5479219;25;95011;-75
2024/04/17 11:45:14;;;;;;;5.68;2.20;;;;;;;14.96;29.26;100370.13;5480673;25;94806;-74
2024/04/17 11:47:43;;;;;;;;;;;;;;;15.68;28.99;100371.94;5479229;25;99205;-74